createdAt,value
2019-03-19T00:00:16.588Z,3.67
2019-03-19T00:02:45.039Z,4.00
2019-03-19T00:05:13.560Z,3.93
2019-03-19T00:07:42.066Z,3.90
2019-03-19T00:10:10.759Z,3.83
2019-03-19T00:12:39.213Z,3.97
2019-03-19T00:15:09.937Z,3.23
2019-03-19T00:17:38.466Z,3.13
2019-03-19T00:20:10.028Z,2.90
2019-03-19T00:22:38.531Z,4.00
2019-03-19T00:25:07.596Z,3.30
2019-03-19T00:27:36.043Z,3.47
2019-03-19T00:30:12.987Z,3.33
2019-03-19T00:32:41.512Z,3.40
2019-03-19T00:35:10.042Z,4.00
2019-03-19T00:37:38.629Z,3.23
2019-03-19T00:40:09.399Z,3.47
2019-03-19T00:42:37.926Z,2.90
2019-03-19T00:45:09.332Z,3.70
2019-03-19T00:47:37.936Z,3.00
2019-03-19T00:50:09.875Z,4.27
2019-03-19T00:52:38.336Z,4.17
2019-03-19T00:55:07.770Z,4.10
2019-03-19T00:57:36.295Z,3.70
2019-03-19T01:00:16.537Z,2.87
2019-03-19T01:02:45.068Z,4.00
2019-03-19T01:05:13.872Z,3.50
2019-03-19T01:07:42.423Z,3.20
2019-03-19T01:10:12.755Z,3.43
2019-03-19T01:15:11.210Z,3.20
2019-03-19T01:17:39.742Z,3.20
2019-03-19T01:20:13.114Z,3.77
2019-03-19T01:22:41.656Z,3.93
2019-03-19T01:25:10.812Z,4.17
2019-03-19T01:27:39.328Z,4.83
2019-03-19T01:30:10.454Z,3.70
2019-03-19T01:32:39.171Z,3.80
2019-03-19T01:35:08.472Z,3.70
2019-03-19T01:37:36.970Z,4.07
2019-03-19T01:40:08.234Z,5.20
2019-03-19T01:42:36.722Z,3.80
2019-03-19T01:45:08.186Z,3.57
2019-03-19T01:47:36.640Z,3.17
2019-03-19T01:50:07.864Z,3.80
2019-03-19T01:52:36.315Z,3.63
2019-03-19T01:55:07.907Z,3.77
2019-03-19T01:57:36.414Z,3.50
2019-03-19T02:00:11.004Z,3.37
2019-03-19T02:02:39.462Z,3.40
2019-03-19T02:05:08.359Z,3.93
2019-03-19T02:07:38.162Z,3.97
2019-03-19T02:10:18.534Z,3.50
2019-03-19T02:15:18.720Z,3.93
2019-03-19T02:17:47.155Z,3.50
2019-03-19T02:20:16.875Z,2.97
2019-03-19T02:22:45.377Z,3.27
2019-03-19T02:25:13.818Z,3.43
2019-03-19T02:27:42.275Z,3.80
2019-03-19T02:30:17.149Z,2.90
2019-03-19T02:32:45.647Z,2.90
2019-03-19T02:35:14.158Z,3.53
2019-03-19T02:37:42.598Z,3.97
2019-03-19T02:40:12.911Z,3.60
2019-03-19T02:45:12.318Z,4.33
2019-03-19T02:47:40.748Z,3.73
2019-03-19T02:50:18.893Z,2.90
2019-03-19T02:52:47.343Z,3.83
2019-03-19T02:55:15.850Z,4.23
2019-03-19T02:57:44.377Z,4.87
2019-03-19T03:00:17.717Z,3.90
2019-03-19T03:02:46.161Z,3.93
2019-03-19T03:05:16.802Z,3.20
2019-03-19T03:07:45.658Z,3.43
2019-03-19T03:10:14.514Z,3.80
2019-03-19T03:12:42.965Z,3.67
2019-03-19T03:15:13.157Z,3.70
2019-03-19T03:17:41.746Z,3.83
2019-03-19T03:20:12.935Z,4.57
2019-03-19T03:22:41.378Z,3.60
2019-03-19T03:25:12.330Z,4.03
2019-03-19T03:27:40.806Z,3.33
2019-03-19T03:30:16.694Z,2.93
2019-03-19T03:32:45.287Z,3.47
2019-03-19T03:35:13.866Z,3.60
2019-03-19T03:37:42.385Z,3.83
2019-03-19T03:40:18.316Z,4.67
2019-03-19T03:42:46.981Z,4.07
2019-03-19T03:45:16.373Z,3.50
2019-03-19T03:47:44.879Z,4.03
2019-03-19T03:50:15.553Z,4.03
2019-03-19T03:52:44.166Z,3.97
2019-03-19T03:55:16.594Z,3.87
2019-03-19T03:57:45.155Z,3.50
2019-03-19T04:00:18.989Z,3.80
2019-03-19T04:02:47.733Z,3.70
2019-03-19T04:05:16.724Z,4.30
2019-03-19T04:07:45.239Z,4.43
2019-03-19T04:10:15.344Z,4.00
2019-03-19T04:12:43.862Z,3.92
2019-03-19T04:15:16.651Z,3.93
2019-03-19T04:17:45.283Z,3.63
2019-03-19T04:20:18.325Z,3.50
2019-03-19T04:22:46.774Z,5.30
2019-03-19T04:25:15.273Z,4.67
2019-03-19T04:27:43.776Z,4.03
2019-03-19T04:30:16.163Z,3.90
2019-03-19T04:32:44.607Z,3.93
2019-03-19T04:35:13.056Z,3.93
2019-03-19T04:37:41.545Z,3.93
2019-03-19T04:40:14.880Z,4.17
2019-03-19T04:42:44.063Z,3.57
2019-03-19T04:45:16.460Z,3.60
2019-03-19T04:47:45.185Z,3.67
2019-03-19T04:50:15.777Z,3.13
2019-03-19T04:52:44.429Z,4.33
2019-03-19T04:55:16.396Z,3.83
2019-03-19T04:57:45.055Z,3.63
2019-03-19T05:00:16.650Z,4.63
2019-03-19T05:02:45.096Z,3.80
2019-03-19T05:05:14.124Z,4.00
2019-03-19T05:07:42.567Z,4.50
2019-03-19T05:10:18.724Z,6.27
2019-03-19T05:12:47.231Z,7.47
2019-03-19T05:15:15.709Z,5.80
2019-03-19T05:17:44.159Z,7.70
2019-03-19T05:20:13.534Z,4.33
2019-03-19T05:22:42.009Z,4.23
2019-03-19T05:25:11.238Z,3.57
2019-03-19T05:27:39.953Z,4.37
2019-03-19T05:30:13.249Z,3.63
2019-03-19T05:32:41.737Z,3.50
2019-03-19T05:35:10.521Z,2.93
2019-03-19T05:37:39.047Z,4.20
2019-03-19T05:40:10.256Z,3.20
2019-03-19T05:42:38.784Z,4.23
2019-03-19T05:45:10.428Z,3.30
2019-03-19T05:47:40.455Z,4.30
2019-03-19T05:50:11.536Z,3.90
2019-03-19T05:52:40.054Z,4.60
2019-03-19T05:55:09.487Z,3.27
2019-03-19T05:57:48.415Z,4.03
2019-03-19T06:00:11.221Z,3.83
2019-03-19T06:02:39.689Z,4.40
2019-03-19T06:05:10.949Z,4.63
2019-03-19T06:07:39.433Z,5.60
2019-03-19T06:10:13.375Z,4.60
2019-03-19T06:12:42.015Z,4.37
2019-03-19T06:15:17.002Z,4.90
2019-03-19T06:17:45.565Z,4.03
2019-03-19T06:20:17.145Z,4.10
2019-03-19T06:22:45.604Z,5.03
2019-03-19T06:25:14.416Z,4.77
2019-03-19T06:27:42.857Z,5.47
2019-03-19T06:30:16.690Z,5.13
2019-03-19T06:32:45.290Z,5.83
2019-03-19T06:35:14.974Z,4.63
2019-03-19T06:37:43.454Z,5.03
2019-03-19T06:40:14.101Z,6.03
2019-03-19T06:42:42.546Z,5.03
2019-03-19T06:45:15.678Z,4.80
2019-03-19T06:47:44.291Z,4.10
2019-03-19T06:50:17.534Z,4.00
2019-03-19T06:52:46.018Z,4.13
2019-03-19T06:55:16.476Z,4.00
2019-03-19T07:00:20.848Z,4.77
2019-03-19T07:02:49.526Z,3.60
2019-03-19T07:05:39.236Z,5.33
2019-03-19T07:08:07.749Z,3.55
2019-03-19T07:10:36.193Z,4.10
2019-03-19T07:13:04.862Z,4.60
2019-03-19T07:15:33.431Z,4.20
2019-03-19T07:18:01.902Z,3.90
2019-03-19T07:20:30.384Z,4.47
2019-03-19T07:22:58.873Z,4.37
2019-03-19T07:25:27.326Z,4.37
2019-03-19T07:27:55.765Z,4.50
2019-03-19T07:30:25.583Z,4.37
2019-03-19T07:32:54.103Z,3.98
2019-03-19T07:35:23.583Z,4.60
2019-03-19T07:37:52.089Z,4.50
2019-03-19T07:40:20.609Z,4.50
2019-03-19T07:42:49.131Z,4.23
2019-03-19T07:45:21.873Z,4.10
2019-03-19T07:47:50.445Z,3.83
2019-03-19T07:50:20.225Z,4.60
2019-03-19T07:52:48.754Z,4.85
2019-03-19T07:55:17.319Z,5.10
2019-03-19T07:57:45.829Z,4.97
2019-03-19T08:00:15.926Z,5.43
2019-03-19T08:02:44.640Z,4.80
2019-03-19T08:05:13.736Z,5.43
2019-03-19T08:07:42.312Z,4.57
2019-03-19T08:10:17.559Z,5.17
2019-03-19T08:12:46.793Z,4.70
2019-03-19T08:15:16.387Z,5.13
2019-03-19T08:17:44.844Z,5.10
2019-03-19T08:20:15.737Z,5.53
2019-03-19T08:22:44.418Z,4.83
2019-03-19T08:25:13.798Z,4.63
2019-03-19T08:27:42.281Z,4.73
2019-03-19T08:30:18.831Z,4.40
2019-03-19T08:32:47.395Z,4.50
2019-03-19T08:35:15.834Z,4.67
2019-03-19T08:37:44.271Z,5.53
2019-03-19T08:40:36.574Z,4.40
2019-03-19T08:43:05.006Z,3.90
2019-03-19T08:45:33.482Z,4.80
2019-03-19T08:48:01.936Z,4.53
2019-03-19T08:50:30.406Z,4.03
2019-03-19T08:52:58.850Z,3.77
2019-03-19T08:55:27.642Z,4.50
2019-03-19T08:57:56.121Z,4.27
2019-03-19T09:00:26.264Z,4.87
2019-03-19T09:02:54.773Z,4.85
2019-03-19T09:05:23.222Z,4.30
2019-03-19T09:07:51.671Z,3.87
2019-03-19T09:10:23.365Z,3.47
2019-03-19T09:12:51.800Z,3.93
2019-03-19T09:15:27.509Z,4.70
2019-03-19T09:17:55.998Z,4.13
2019-03-19T09:20:24.440Z,3.63
2019-03-19T09:22:52.954Z,3.60
2019-03-19T09:25:21.399Z,3.30
2019-03-19T09:27:49.849Z,3.27
2019-03-19T09:30:19.578Z,3.10
2019-03-19T09:32:48.105Z,3.22
2019-03-19T09:35:16.626Z,4.00
2019-03-19T09:37:57.240Z,4.05
2019-03-19T09:40:19.988Z,3.72
2019-03-19T09:42:48.845Z,3.47
2019-03-19T09:45:18.161Z,4.80
2019-03-19T09:47:47.040Z,3.25
2019-03-19T09:50:20.817Z,3.35
2019-03-19T09:52:49.332Z,3.52
2019-03-19T09:55:17.944Z,3.62
2019-03-19T09:57:46.728Z,3.65
2019-03-19T10:00:23.114Z,3.90
2019-03-19T10:02:51.803Z,3.27
2019-03-19T10:05:20.314Z,3.30
2019-03-19T10:07:48.933Z,3.72
2019-03-19T10:10:23.868Z,3.45
2019-03-19T10:12:52.366Z,3.37
2019-03-19T10:15:20.986Z,3.00
2019-03-19T10:17:49.511Z,3.35
2019-03-19T10:20:23.076Z,3.37
2019-03-19T10:22:51.531Z,3.40
2019-03-19T10:25:19.999Z,2.92
2019-03-19T10:27:48.446Z,3.58
2019-03-19T10:30:24.644Z,3.08
2019-03-19T10:32:53.093Z,3.15
2019-03-19T10:35:21.779Z,2.83
2019-03-19T10:37:50.287Z,2.92
2019-03-19T10:40:19.679Z,2.75
2019-03-19T10:42:48.368Z,3.15
2019-03-19T10:45:18.162Z,3.02
2019-03-19T10:47:46.597Z,3.35
2019-03-19T10:50:23.055Z,3.40
2019-03-19T10:52:51.509Z,3.72
2019-03-19T10:55:20.092Z,3.20
2019-03-19T10:57:48.646Z,2.52
2019-03-19T11:00:24.142Z,2.85
2019-03-19T11:02:53.070Z,3.62
2019-03-19T11:05:22.649Z,2.67
2019-03-19T11:07:51.417Z,2.50
2019-03-19T11:10:20.194Z,3.75
2019-03-19T11:12:48.642Z,2.75
2019-03-19T11:15:18.488Z,3.40
2019-03-19T11:17:47.010Z,3.02
2019-03-19T11:20:17.293Z,2.72
2019-03-19T11:22:46.063Z,3.35
2019-03-19T11:25:25.833Z,3.02
2019-03-19T11:27:54.409Z,3.35
2019-03-19T11:30:30.843Z,3.35
2019-03-19T11:32:59.449Z,2.35
2019-03-19T11:35:28.067Z,2.25
2019-03-19T11:37:56.522Z,2.33
2019-03-19T11:40:26.126Z,2.15
2019-03-19T11:42:54.851Z,1.87
2019-03-19T11:45:25.112Z,1.90
2019-03-19T11:47:53.585Z,1.90
2019-03-19T11:50:26.474Z,2.08
2019-03-19T11:52:55.160Z,1.75
2019-03-19T11:55:23.701Z,2.35
2019-03-19T11:57:52.679Z,2.33
2019-03-19T12:00:33.208Z,2.37
2019-03-19T12:03:11.432Z,3.75
2019-03-19T12:05:31.841Z,2.58
2019-03-19T12:08:00.367Z,2.00
2019-03-19T12:10:28.945Z,2.33
2019-03-19T12:12:57.561Z,2.30
2019-03-19T12:15:26.209Z,2.20
2019-03-19T12:17:54.657Z,1.80
2019-03-19T12:20:23.146Z,2.67
2019-03-19T12:22:51.590Z,1.90
2019-03-19T12:25:20.201Z,1.82
2019-03-19T12:27:48.710Z,2.42
2019-03-19T12:30:25.757Z,4.30
2019-03-19T12:32:52.204Z,3.10
2019-03-19T12:35:21.059Z,3.20
2019-03-19T12:37:49.514Z,2.52
2019-03-19T12:40:22.094Z,2.10
2019-03-19T12:42:50.577Z,2.20
2019-03-19T12:45:20.370Z,2.92
2019-03-19T12:47:48.859Z,2.33
2019-03-19T12:50:20.009Z,2.80
2019-03-19T12:52:48.452Z,2.20
2019-03-19T12:55:16.930Z,2.58
2019-03-19T12:57:47.012Z,2.02
2019-03-19T13:00:33.468Z,2.83
2019-03-19T13:02:53.078Z,2.83
2019-03-19T13:05:22.696Z,2.92
2019-03-19T13:07:51.911Z,2.92
2019-03-19T13:10:24.998Z,2.70
2019-03-19T13:12:53.473Z,3.20
2019-03-19T13:15:22.160Z,3.02
2019-03-19T13:17:50.623Z,2.37
2019-03-19T13:20:23.157Z,2.02
2019-03-19T13:22:51.722Z,2.22
2019-03-19T13:25:25.141Z,2.05
2019-03-19T13:27:53.822Z,1.95
2019-03-19T13:30:30.127Z,1.92
2019-03-19T13:32:58.705Z,1.87
2019-03-19T13:35:27.150Z,2.60
2019-03-19T13:37:55.586Z,2.25
2019-03-19T13:40:24.126Z,2.65
2019-03-19T13:42:52.604Z,1.62
2019-03-19T13:45:24.438Z,2.10
2019-03-19T13:47:53.074Z,2.05
2019-03-19T13:50:22.462Z,2.35
2019-03-19T13:52:50.905Z,1.95
2019-03-19T13:55:23.341Z,2.85
2019-03-19T13:57:51.854Z,2.22
2019-03-19T14:00:20.582Z,1.75
2019-03-19T14:02:49.154Z,1.95
2019-03-19T14:05:18.311Z,2.20
2019-03-19T14:07:46.737Z,2.10
2019-03-19T14:10:20.033Z,1.95
2019-03-19T14:12:48.749Z,1.90
2019-03-19T14:15:27.507Z,2.30
2019-03-19T14:17:56.096Z,2.27
2019-03-19T14:20:24.552Z,2.15
2019-03-19T14:22:53.057Z,2.22
2019-03-19T14:25:21.512Z,2.77
2019-03-19T14:27:50.036Z,2.00
2019-03-19T14:30:19.673Z,2.15
2019-03-19T14:32:48.120Z,2.35
2019-03-19T14:35:16.639Z,1.82
2019-03-19T14:37:45.282Z,1.92
2019-03-19T14:40:22.248Z,1.85
2019-03-19T14:42:50.893Z,2.00
2019-03-19T14:45:19.943Z,2.12
2019-03-19T14:47:48.530Z,2.95
2019-03-19T14:50:21.615Z,1.87
2019-03-19T14:52:50.059Z,2.47
2019-03-19T14:55:18.737Z,1.80
2019-03-19T14:57:47.183Z,1.92
2019-03-19T15:00:23.199Z,1.75
2019-03-19T15:02:51.689Z,2.27
2019-03-19T15:05:20.296Z,2.00
2019-03-19T15:07:48.799Z,1.70
2019-03-19T15:10:19.660Z,2.55
2019-03-19T15:12:48.174Z,2.95
2019-03-19T15:15:17.523Z,2.10
2019-03-19T15:17:46.184Z,2.02
2019-03-19T15:20:21.692Z,2.40
2019-03-19T15:22:50.128Z,2.45
2019-03-19T15:25:18.578Z,2.52
2019-03-19T15:27:47.081Z,2.25
2019-03-19T15:30:21.638Z,2.37
2019-03-19T15:32:50.122Z,2.50
2019-03-19T15:35:18.609Z,2.20
2019-03-19T15:37:47.510Z,2.58
2019-03-19T15:40:17.092Z,2.92
2019-03-19T15:42:45.550Z,2.77
2019-03-19T15:45:22.644Z,2.08
2019-03-19T15:47:51.089Z,1.85
2019-03-19T15:50:19.853Z,2.17
2019-03-19T15:52:48.312Z,2.75
2019-03-19T15:55:16.757Z,2.40
2019-03-19T15:57:45.266Z,2.05
2019-03-19T16:00:15.290Z,2.10
2019-03-19T16:02:43.961Z,2.30
2019-03-19T16:05:13.459Z,2.05
2019-03-19T16:07:42.501Z,2.20
2019-03-19T16:10:15.589Z,2.05
2019-03-19T16:12:44.031Z,2.42
2019-03-19T16:15:21.262Z,4.78
2019-03-19T16:17:49.715Z,2.50
2019-03-19T16:20:19.334Z,2.45
2019-03-19T16:22:47.783Z,2.35
2019-03-19T16:25:16.390Z,2.17
2019-03-19T16:27:44.876Z,2.00
2019-03-19T16:30:16.389Z,2.17
2019-03-19T16:32:44.878Z,2.27
2019-03-19T16:35:14.119Z,2.37
2019-03-19T16:37:42.563Z,1.90
2019-03-19T16:40:19.640Z,1.82
2019-03-19T16:42:48.082Z,2.55
2019-03-19T16:45:17.970Z,2.40
2019-03-19T16:47:46.912Z,2.35
2019-03-19T16:50:20.058Z,2.45
2019-03-19T16:52:48.585Z,3.08
2019-03-19T16:55:18.430Z,2.83
2019-03-19T16:57:46.883Z,2.50
2019-03-19T17:00:18.007Z,2.50
2019-03-19T17:02:46.507Z,3.33
2019-03-19T17:05:16.494Z,4.17
2019-03-19T17:07:44.940Z,3.67
2019-03-19T17:10:16.071Z,2.90
2019-03-19T17:12:44.714Z,3.40
2019-03-19T17:15:15.239Z,3.67
2019-03-19T17:20:13.178Z,3.05
2019-03-19T17:22:41.839Z,3.27
2019-03-19T17:25:20.193Z,2.12
2019-03-19T17:27:48.796Z,3.17
2019-03-19T17:30:33.830Z,2.77
2019-03-19T17:33:02.414Z,3.58
2019-03-19T17:35:30.862Z,2.85
2019-03-19T17:37:59.305Z,4.08
2019-03-19T17:40:27.817Z,3.62
2019-03-19T17:42:56.261Z,3.35
2019-03-19T17:45:24.700Z,4.37
2019-03-19T17:47:53.191Z,3.37
2019-03-19T17:50:26.301Z,4.47
2019-03-19T17:52:55.861Z,3.60
2019-03-19T17:55:24.509Z,3.42
2019-03-19T17:57:52.985Z,4.50
2019-03-19T18:00:23.496Z,4.07
2019-03-19T18:05:19.716Z,3.60
2019-03-19T18:07:48.198Z,4.07
2019-03-19T18:10:16.818Z,4.60
2019-03-19T18:12:45.318Z,6.10
2019-03-19T18:15:20.320Z,7.23
2019-03-19T18:17:48.942Z,10.83
2019-03-19T18:20:18.356Z,12.00
2019-03-19T18:22:46.805Z,9.30
2019-03-19T18:25:16.456Z,9.40
2019-03-19T18:27:44.917Z,7.53
2019-03-19T18:30:24.376Z,8.20
2019-03-19T18:32:52.813Z,6.87
2019-03-19T18:35:21.348Z,6.90
2019-03-19T18:37:49.830Z,6.83
2019-03-19T18:40:19.113Z,6.33
2019-03-19T18:42:47.621Z,5.97
2019-03-19T18:45:18.556Z,8.57
2019-03-19T18:47:47.073Z,7.37
2019-03-19T18:50:22.477Z,7.23
2019-03-19T18:52:50.927Z,7.63
2019-03-19T18:55:19.370Z,8.03
2019-03-19T18:57:47.841Z,7.73
2019-03-19T19:00:23.205Z,11.00
2019-03-19T19:02:51.704Z,10.83
2019-03-19T19:05:24.081Z,11.13
2019-03-19T19:07:52.585Z,11.63
2019-03-19T19:10:21.675Z,16.13
2019-03-19T19:12:50.490Z,14.93
2019-03-19T19:15:21.211Z,13.20
2019-03-19T19:17:49.688Z,12.63
2019-03-19T19:20:18.607Z,13.13
2019-03-19T19:22:47.117Z,12.73
2019-03-19T19:25:24.455Z,12.13
2019-03-19T19:27:52.973Z,11.00
2019-03-19T19:30:29.658Z,10.33
2019-03-19T19:33:01.936Z,9.50
2019-03-19T19:35:28.274Z,8.88
2019-03-19T19:37:56.745Z,10.47
2019-03-19T19:40:25.251Z,11.30
2019-03-19T19:42:53.696Z,11.43
2019-03-19T19:45:22.147Z,14.87
2019-03-19T19:47:51.561Z,11.30
2019-03-19T19:50:22.061Z,14.93
2019-03-19T19:55:18.296Z,11.13
2019-03-19T19:57:47.176Z,10.43
2019-03-19T20:00:20.085Z,11.30
2019-03-19T20:02:48.821Z,11.57
2019-03-19T20:05:17.436Z,10.70
2019-03-19T20:07:45.958Z,10.10
2019-03-19T20:10:25.482Z,10.80
2019-03-19T20:12:54.006Z,10.78
2019-03-19T20:15:22.445Z,9.60
2019-03-19T20:17:50.950Z,10.30
2019-03-19T20:20:24.586Z,9.43
2019-03-19T20:22:53.037Z,9.17
2019-03-19T20:25:21.504Z,9.33
2019-03-19T20:27:49.963Z,10.17
2019-03-19T20:30:20.031Z,9.20
2019-03-19T20:32:48.529Z,8.78
2019-03-19T20:35:16.969Z,9.37
2019-03-19T20:37:45.495Z,9.70
2019-03-19T20:40:17.325Z,9.13
2019-03-19T20:42:46.110Z,8.50
2019-03-19T20:45:24.195Z,9.40
2019-03-19T20:47:52.648Z,8.73
2019-03-19T20:50:26.325Z,8.40
2019-03-19T20:52:54.806Z,9.03
2019-03-19T20:55:23.242Z,8.47
2019-03-19T20:57:52.057Z,9.17
2019-03-19T21:00:20.690Z,8.57
2019-03-19T21:02:49.146Z,10.40
2019-03-19T21:05:17.642Z,8.97
2019-03-19T21:07:46.158Z,9.47
2019-03-19T21:10:17.155Z,9.77
2019-03-19T21:12:45.701Z,10.20
2019-03-19T21:15:19.361Z,9.97
2019-03-19T21:17:48.930Z,9.80
2019-03-19T21:20:17.740Z,10.28
2019-03-19T21:22:46.277Z,8.60
2019-03-19T21:25:14.723Z,8.93
2019-03-19T21:27:44.790Z,8.67
2019-03-19T21:30:16.099Z,9.45
2019-03-19T21:32:44.548Z,8.90
2019-03-19T21:35:13.381Z,9.67
2019-03-19T21:37:41.908Z,9.00
2019-03-19T21:40:12.998Z,8.30
2019-03-19T21:42:41.527Z,8.63
2019-03-19T21:45:14.605Z,8.17
2019-03-19T21:47:43.036Z,9.33
2019-03-19T21:50:14.167Z,10.27
2019-03-19T21:52:42.679Z,9.83
2019-03-19T21:55:14.071Z,8.87
2019-03-19T21:57:42.098Z,8.73
2019-03-19T22:00:18.501Z,9.13
2019-03-19T22:02:46.989Z,9.83
2019-03-19T22:05:15.698Z,9.60
2019-03-19T22:07:44.144Z,9.07
2019-03-19T22:10:17.022Z,10.20
2019-03-19T22:12:45.465Z,9.40
2019-03-19T22:15:16.508Z,9.77
2019-03-19T22:17:45.098Z,9.90
2019-03-19T22:20:34.737Z,9.23
2019-03-19T22:23:03.247Z,9.45
2019-03-19T22:25:31.686Z,8.07
2019-03-19T22:28:00.120Z,9.40
2019-03-19T22:30:28.644Z,9.10
2019-03-19T22:32:57.081Z,8.67
2019-03-19T22:35:25.528Z,9.90
2019-03-19T22:37:54.008Z,10.30
2019-03-19T22:40:22.453Z,9.17
2019-03-19T22:42:50.933Z,8.60
2019-03-19T22:45:19.814Z,8.90
2019-03-19T22:47:48.583Z,9.60
2019-03-19T22:50:17.980Z,9.47
2019-03-19T22:52:46.662Z,9.30
2019-03-19T22:55:15.976Z,9.30
2019-03-19T22:57:44.784Z,9.20
2019-03-19T23:00:23.113Z,9.10
2019-03-19T23:02:51.692Z,10.83
2019-03-19T23:05:20.142Z,9.40
2019-03-19T23:07:48.653Z,9.93
2019-03-19T23:10:17.094Z,8.57
2019-03-19T23:12:45.546Z,8.00
2019-03-19T23:15:14.469Z,8.97
2019-03-19T23:17:42.981Z,9.30
2019-03-19T23:20:14.966Z,9.53
2019-03-19T23:22:43.443Z,7.80
2019-03-19T23:25:12.416Z,8.57
2019-03-19T23:27:40.913Z,7.97
2019-03-19T23:30:17.510Z,8.67
2019-03-19T23:32:46.632Z,9.20
2019-03-19T23:35:15.156Z,9.00
2019-03-19T23:37:43.660Z,9.13
2019-03-19T23:40:14.048Z,8.70
2019-03-19T23:45:11.741Z,7.80
2019-03-19T23:47:40.190Z,7.97
2019-03-19T23:50:15.779Z,9.00
2019-03-19T23:52:44.289Z,8.23
2019-03-19T23:55:13.262Z,10.63
2019-03-19T23:57:41.743Z,8.97
